createdAt,value
2023-05-17T00:00:30.029Z,27.04
2023-05-17T00:02:59.140Z,26.70
2023-05-17T00:05:28.446Z,26.36
2023-05-17T00:07:57.591Z,26.66
2023-05-17T00:10:27.443Z,26.93
2023-05-17T00:12:57.370Z,26.94
2023-05-17T00:15:27.104Z,27.24
2023-05-17T00:17:56.864Z,26.87
2023-05-17T00:20:26.686Z,27.28
2023-05-17T00:22:55.799Z,27.66
2023-05-17T00:25:24.880Z,26.78
2023-05-17T00:27:53.967Z,26.18
2023-05-17T00:30:23.197Z,26.35
2023-05-17T00:32:52.474Z,26.35
2023-05-17T00:35:21.975Z,26.37
2023-05-17T00:37:51.240Z,27.09
2023-05-17T00:40:20.452Z,26.58
2023-05-17T00:42:49.668Z,25.91
2023-05-17T00:45:18.729Z,25.87
2023-05-17T00:47:47.972Z,25.75
2023-05-17T00:50:17.422Z,25.77
2023-05-17T00:52:47.724Z,26.03
2023-05-17T00:55:16.950Z,25.99
2023-05-17T00:57:46.258Z,26.25
2023-05-17T01:00:15.525Z,26.40
2023-05-17T01:02:45.567Z,26.16
2023-05-17T01:05:14.796Z,25.98
2023-05-17T01:07:43.909Z,26.14
2023-05-17T01:10:13.495Z,26.30
2023-05-17T01:13:07.459Z,26.46
2023-05-17T01:15:44.248Z,26.35
2023-05-17T01:18:53.954Z,26.42
2023-05-17T01:21:37.396Z,26.23
2023-05-17T01:24:42.237Z,26.31
2023-05-17T01:27:13.913Z,26.44
2023-05-17T01:29:47.150Z,26.68
2023-05-17T01:32:17.446Z,26.87
2023-05-17T01:34:46.788Z,27.01
2023-05-17T01:37:15.873Z,27.05
2023-05-17T01:39:46.007Z,27.14
2023-05-17T01:42:23.292Z,26.93
2023-05-17T01:45:06.514Z,27.20
2023-05-17T01:47:46.971Z,27.28
2023-05-17T01:50:18.852Z,27.09
2023-05-17T01:53:00.689Z,27.14
2023-05-17T01:55:42.851Z,27.02
2023-05-17T01:58:13.898Z,26.88
2023-05-17T02:00:46.300Z,26.55
2023-05-17T02:03:24.585Z,25.70
2023-05-17T02:05:54.884Z,25.61
2023-05-17T02:08:24.312Z,25.44
2023-05-17T02:10:54.308Z,25.58
2023-05-17T02:13:28.036Z,25.50
2023-05-17T02:16:05.284Z,25.40
2023-05-17T02:18:36.614Z,25.42
2023-05-17T02:21:06.284Z,25.77
2023-05-17T02:23:36.064Z,26.08
2023-05-17T02:26:05.398Z,25.28
2023-05-17T02:28:36.216Z,25.43
2023-05-17T02:31:05.360Z,25.56
2023-05-17T02:33:34.782Z,25.49
2023-05-17T02:36:03.997Z,25.28
2023-05-17T02:38:33.055Z,25.41
2023-05-17T02:41:02.531Z,25.44
2023-05-17T02:43:33.553Z,25.36
2023-05-17T02:46:02.630Z,25.50
2023-05-17T02:48:31.688Z,25.40
2023-05-17T02:51:00.818Z,25.14
2023-05-17T02:53:29.793Z,25.25
2023-05-17T02:55:59.222Z,25.31
2023-05-17T02:58:28.665Z,25.23
2023-05-17T03:00:57.952Z,25.17
2023-05-17T03:03:27.933Z,25.14
2023-05-17T03:06:02.477Z,25.00
2023-05-17T03:08:32.245Z,24.85
2023-05-17T03:11:03.143Z,24.28
2023-05-17T03:13:32.680Z,24.13
2023-05-17T03:16:03.430Z,24.26
2023-05-17T03:18:32.941Z,24.22
2023-05-17T03:21:02.765Z,24.34
2023-05-17T03:23:32.025Z,24.27
2023-05-17T03:26:02.892Z,24.10
2023-05-17T03:28:36.509Z,23.95
2023-05-17T03:31:05.837Z,23.75
2023-05-17T03:33:36.118Z,23.83
2023-05-17T03:36:05.606Z,23.88
2023-05-17T03:38:34.674Z,23.73
2023-05-17T03:41:05.481Z,23.64
2023-05-17T03:43:34.859Z,23.56
2023-05-17T03:46:03.936Z,23.42
2023-05-17T03:48:35.312Z,23.31
2023-05-17T03:51:06.754Z,23.29
2023-05-17T03:53:41.935Z,23.20
2023-05-17T03:56:12.318Z,23.11
2023-05-17T03:58:41.450Z,22.97
2023-05-17T04:01:10.512Z,22.71
2023-05-17T04:03:40.705Z,22.82
2023-05-17T04:06:11.009Z,22.77
2023-05-17T04:08:40.973Z,22.68
2023-05-17T04:11:14.746Z,22.64
2023-05-17T04:13:44.891Z,22.51
2023-05-17T04:16:14.242Z,22.39
2023-05-17T04:18:44.264Z,22.40
2023-05-17T04:21:14.318Z,22.38
2023-05-17T04:23:43.457Z,22.34
2023-05-17T04:26:12.493Z,22.23
2023-05-17T04:28:42.107Z,22.15
2023-05-17T04:31:12.140Z,22.09
2023-05-17T04:33:41.562Z,22.05
2023-05-17T04:36:10.651Z,22.05
2023-05-17T04:38:41.207Z,22.02
2023-05-17T04:41:13.218Z,21.84
2023-05-17T04:43:42.917Z,21.65
2023-05-17T04:46:19.658Z,21.68
2023-05-17T04:48:48.971Z,21.68
2023-05-17T04:51:18.417Z,21.62
2023-05-17T04:53:47.528Z,21.59
2023-05-17T04:56:19.754Z,21.57
2023-05-17T04:58:49.603Z,21.59
2023-05-17T05:01:20.349Z,21.57
2023-05-17T05:03:49.338Z,21.30
2023-05-17T05:06:19.016Z,21.24
2023-05-17T05:08:48.442Z,20.81
2023-05-17T05:11:17.705Z,21.01
2023-05-17T05:13:47.086Z,20.73
2023-05-17T05:16:16.824Z,20.65
2023-05-17T05:18:47.278Z,21.06
2023-05-17T05:21:16.393Z,21.07
2023-05-17T05:23:45.401Z,21.09
2023-05-17T05:26:16.046Z,21.15
2023-05-17T05:28:44.986Z,21.08
2023-05-17T05:31:14.152Z,20.86
2023-05-17T05:33:49.367Z,20.65
2023-05-17T05:36:18.561Z,20.68
2023-05-17T05:38:49.842Z,20.57
2023-05-17T05:41:18.820Z,20.70
2023-05-17T05:43:48.037Z,20.58
2023-05-17T05:46:17.149Z,20.29
2023-05-17T05:48:46.179Z,20.41
2023-05-17T05:51:16.071Z,20.35
2023-05-17T05:53:46.744Z,20.02
2023-05-17T05:56:15.926Z,19.95
2023-05-17T05:58:45.938Z,20.10
2023-05-17T06:01:15.377Z,20.20
2023-05-17T06:03:44.459Z,20.12
2023-05-17T06:06:13.533Z,19.97
2023-05-17T06:08:42.998Z,19.98
2023-05-17T06:11:12.304Z,20.04
2023-05-17T06:13:41.466Z,19.95
2023-05-17T06:16:10.508Z,19.94
2023-05-17T06:18:39.869Z,19.77
2023-05-17T06:21:08.972Z,19.75
2023-05-17T06:23:37.911Z,19.73
2023-05-17T06:26:11.288Z,19.73
2023-05-17T06:28:40.466Z,19.71
2023-05-17T06:31:09.394Z,19.59
2023-05-17T06:33:38.455Z,19.58
2023-05-17T06:36:07.995Z,19.47
2023-05-17T06:38:39.209Z,19.42
2023-05-17T06:41:10.247Z,19.45
2023-05-17T06:43:39.250Z,19.35
2023-05-17T06:46:08.227Z,19.30
2023-05-17T06:48:37.330Z,19.25
2023-05-17T06:51:06.453Z,19.29
2023-05-17T06:53:35.641Z,19.20
2023-05-17T06:56:04.730Z,19.06
2023-05-17T06:58:33.849Z,18.72
2023-05-17T07:01:03.004Z,18.52
2023-05-17T07:03:32.009Z,18.40
2023-05-17T07:06:01.629Z,18.40
2023-05-17T07:08:30.679Z,18.39
2023-05-17T07:10:59.598Z,18.23
2023-05-17T07:13:28.832Z,18.57
2023-05-17T07:15:57.838Z,18.42
2023-05-17T07:18:26.909Z,18.53
2023-05-17T07:20:56.526Z,18.43
2023-05-17T07:23:25.592Z,18.19
2023-05-17T07:25:54.755Z,18.02
2023-05-17T07:28:23.957Z,18.27
2023-05-17T07:30:53.024Z,18.18
2023-05-17T07:33:22.162Z,18.25
2023-05-17T07:35:51.139Z,18.16
2023-05-17T07:38:20.082Z,17.92
2023-05-17T07:40:49.072Z,17.78
2023-05-17T07:43:17.976Z,18.23
2023-05-17T07:45:47.034Z,18.51
2023-05-17T07:48:16.020Z,18.18
2023-05-17T07:50:45.663Z,17.89
2023-05-17T07:53:14.646Z,18.01
2023-05-17T07:55:44.262Z,18.10
2023-05-17T07:58:13.260Z,17.98
2023-05-17T08:00:43.365Z,17.94
2023-05-17T08:03:12.850Z,17.66
2023-05-17T08:05:43.228Z,17.42
2023-05-17T08:08:12.340Z,17.49
2023-05-17T08:10:41.354Z,17.58
2023-05-17T08:13:10.407Z,17.61
2023-05-17T08:15:39.405Z,17.62
2023-05-17T08:18:08.539Z,17.79
2023-05-17T08:20:37.702Z,17.70
2023-05-17T08:23:07.788Z,17.74
2023-05-17T08:25:37.037Z,17.52
2023-05-17T08:28:06.246Z,17.58
2023-05-17T08:30:35.153Z,17.52
2023-05-17T08:33:04.204Z,17.36
2023-05-17T08:35:33.619Z,17.41
2023-05-17T08:38:02.832Z,17.32
2023-05-17T08:40:32.582Z,16.87
2023-05-17T08:43:03.377Z,16.93
2023-05-17T08:45:33.058Z,17.03
2023-05-17T08:48:02.318Z,17.07
2023-05-17T08:50:32.199Z,17.09
2023-05-17T08:53:02.914Z,16.72
2023-05-17T08:55:33.966Z,16.76
2023-05-17T08:58:04.912Z,16.68
2023-05-17T09:00:35.771Z,16.81
2023-05-17T09:03:04.898Z,16.64
2023-05-17T09:05:34.070Z,16.63
2023-05-17T09:08:03.758Z,16.56
2023-05-17T09:10:32.846Z,16.46
2023-05-17T09:13:01.888Z,16.50
2023-05-17T09:15:35.059Z,16.55
2023-05-17T09:18:04.284Z,16.62
2023-05-17T09:20:37.585Z,16.59
2023-05-17T09:23:15.479Z,16.41
2023-05-17T09:25:51.200Z,16.56
2023-05-17T09:28:21.444Z,16.40
2023-05-17T09:30:50.925Z,16.23
2023-05-17T09:33:22.812Z,15.83
2023-05-17T09:35:52.328Z,15.76
2023-05-17T09:38:28.438Z,16.09
2023-05-17T09:40:57.595Z,16.28
2023-05-17T09:43:27.494Z,16.40
2023-05-17T09:46:00.308Z,16.16
2023-05-17T09:48:29.379Z,16.03
2023-05-17T09:50:58.389Z,16.21
2023-05-17T09:53:32.698Z,16.00
2023-05-17T09:56:04.043Z,16.16
2023-05-17T09:58:38.770Z,16.02
2023-05-17T10:01:09.933Z,16.05
2023-05-17T10:03:39.938Z,16.13
2023-05-17T10:06:13.424Z,15.81
2023-05-17T10:08:54.284Z,15.77
2023-05-17T10:11:35.176Z,16.08
2023-05-17T10:14:12.973Z,16.23
2023-05-17T10:16:43.857Z,16.09
2023-05-17T10:19:13.536Z,16.07
2023-05-17T10:21:44.150Z,16.08
2023-05-17T10:24:14.196Z,15.86
2023-05-17T10:26:43.786Z,15.90
2023-05-17T10:29:13.987Z,15.57
2023-05-17T10:31:45.174Z,15.62
2023-05-17T10:34:17.610Z,15.62
2023-05-17T10:36:47.352Z,15.58
2023-05-17T10:39:17.431Z,15.64
2023-05-17T10:41:49.119Z,15.46
2023-05-17T10:44:18.697Z,15.52
2023-05-17T10:47:00.468Z,15.61
2023-05-17T10:49:34.477Z,15.54
2023-05-17T10:52:18.670Z,15.35
2023-05-17T10:54:51.282Z,15.52
2023-05-17T10:57:49.160Z,15.48
2023-05-17T11:00:22.937Z,15.36
2023-05-17T11:02:51.941Z,15.37
2023-05-17T11:05:28.726Z,15.51
2023-05-17T11:08:20.946Z,15.41
2023-05-17T11:11:11.565Z,15.43
2023-05-17T11:13:56.057Z,15.29
2023-05-17T11:16:35.736Z,14.91
2023-05-17T11:19:13.073Z,14.75
2023-05-17T11:21:49.373Z,15.01
2023-05-17T11:24:27.591Z,14.99
2023-05-17T11:26:59.049Z,14.72
2023-05-17T11:29:31.924Z,14.97
2023-05-17T11:32:06.866Z,14.92
2023-05-17T11:34:36.727Z,14.95
2023-05-17T11:37:11.228Z,15.15
2023-05-17T11:40:22.687Z,15.02
2023-05-17T11:42:52.886Z,14.63
2023-05-17T11:45:23.746Z,14.74
2023-05-17T11:47:54.831Z,14.85
2023-05-17T11:50:24.342Z,14.84
2023-05-17T11:52:59.056Z,14.93
2023-05-17T11:55:28.793Z,14.85
2023-05-17T11:57:58.349Z,14.99
2023-05-17T12:00:28.761Z,15.02
2023-05-17T12:02:58.642Z,14.95
2023-05-17T12:05:30.667Z,14.85
2023-05-17T12:07:59.750Z,14.94
2023-05-17T12:10:32.835Z,14.92
2023-05-17T12:13:04.799Z,14.93
2023-05-17T12:15:33.960Z,14.95
2023-05-17T12:18:03.538Z,14.92
2023-05-17T12:20:33.828Z,14.89
2023-05-17T12:23:02.898Z,14.78
2023-05-17T12:25:33.565Z,14.72
2023-05-17T12:28:23.190Z,14.82
2023-05-17T12:30:59.341Z,14.79
2023-05-17T12:33:29.362Z,14.77
2023-05-17T12:35:58.954Z,14.80
2023-05-17T12:38:33.866Z,14.81
2023-05-17T12:41:07.646Z,14.78
2023-05-17T12:43:38.546Z,14.77
2023-05-17T12:46:14.885Z,14.69
2023-05-17T12:48:44.731Z,14.73
2023-05-17T12:51:24.548Z,14.73
2023-05-17T12:54:00.495Z,14.76
2023-05-17T12:56:30.737Z,14.78
2023-05-17T12:59:08.870Z,14.91
2023-05-17T13:01:40.868Z,14.84
2023-05-17T13:04:10.807Z,14.76
2023-05-17T13:06:54.643Z,14.74
2023-05-17T13:09:25.850Z,14.74
2023-05-17T13:12:08.827Z,14.61
2023-05-17T13:14:39.593Z,14.70
2023-05-17T13:17:33.286Z,14.65
2023-05-17T13:20:02.858Z,14.74
2023-05-17T13:22:32.208Z,14.58
2023-05-17T13:25:01.219Z,14.68
2023-05-17T13:27:30.428Z,14.74
2023-05-17T13:30:00.607Z,14.84
2023-05-17T13:32:29.680Z,14.77
2023-05-17T13:35:00.524Z,14.39
2023-05-17T13:37:29.762Z,14.44
2023-05-17T13:39:58.728Z,14.55
2023-05-17T13:42:27.726Z,14.60
2023-05-17T13:44:57.009Z,14.58
2023-05-17T13:47:26.504Z,14.58
2023-05-17T13:49:55.610Z,14.46
2023-05-17T13:52:26.071Z,14.47
2023-05-17T13:54:55.696Z,14.51
2023-05-17T13:57:24.907Z,14.84
2023-05-17T13:59:53.953Z,14.81
2023-05-17T14:02:23.147Z,15.10
2023-05-17T14:04:52.157Z,14.73
2023-05-17T14:07:21.407Z,14.55
2023-05-17T14:09:50.484Z,15.06
2023-05-17T14:12:19.421Z,15.04
2023-05-17T14:14:48.441Z,14.83
2023-05-17T14:17:17.466Z,14.56
2023-05-17T14:19:46.549Z,14.41
2023-05-17T14:22:18.698Z,14.48
2023-05-17T14:24:49.124Z,14.57
2023-05-17T14:27:18.408Z,14.78
2023-05-17T14:29:47.339Z,14.70
2023-05-17T14:32:16.425Z,14.93
2023-05-17T14:34:45.859Z,15.46
2023-05-17T14:37:15.640Z,15.56
2023-05-17T14:39:55.222Z,15.34
2023-05-17T14:42:33.669Z,15.31
2023-05-17T14:45:03.040Z,15.24
2023-05-17T14:47:32.966Z,15.29
2023-05-17T14:50:04.109Z,15.20
2023-05-17T14:52:33.333Z,15.24
2023-05-17T14:55:02.764Z,15.46
2023-05-17T14:57:32.315Z,15.20
2023-05-17T15:00:01.875Z,15.30
2023-05-17T15:02:31.746Z,15.84
2023-05-17T15:05:04.426Z,15.58
2023-05-17T15:07:35.192Z,15.49
2023-05-17T15:10:06.111Z,15.87
2023-05-17T15:12:35.190Z,15.91
2023-05-17T15:15:04.491Z,15.78
2023-05-17T15:17:33.741Z,15.95
2023-05-17T15:20:02.731Z,15.99
2023-05-17T15:22:31.749Z,15.90
2023-05-17T15:25:00.919Z,15.82
2023-05-17T15:27:30.433Z,15.71
2023-05-17T15:29:59.357Z,16.03
2023-05-17T15:32:28.438Z,16.07
2023-05-17T15:34:58.480Z,16.15
2023-05-17T15:37:27.588Z,15.77
2023-05-17T15:39:56.693Z,15.78
2023-05-17T15:42:25.717Z,15.65
2023-05-17T15:44:54.670Z,15.64
2023-05-17T15:47:31.539Z,15.61
2023-05-17T15:50:08.861Z,15.73
2023-05-17T15:52:37.855Z,15.97
2023-05-17T15:55:07.414Z,16.05
2023-05-17T15:57:36.572Z,16.18
2023-05-17T16:00:06.801Z,16.71
2023-05-17T16:02:36.956Z,16.79
2023-05-17T16:05:06.362Z,16.78
2023-05-17T16:07:35.241Z,16.81
2023-05-17T16:10:04.511Z,16.94
2023-05-17T16:12:33.459Z,17.06
2023-05-17T16:15:03.173Z,17.12
2023-05-17T16:17:32.313Z,17.12
2023-05-17T16:20:01.625Z,17.13
2023-05-17T16:22:30.755Z,16.94
2023-05-17T16:24:59.912Z,16.91
2023-05-17T16:27:29.413Z,16.99
2023-05-17T16:29:58.646Z,16.80
2023-05-17T16:32:27.913Z,16.95
2023-05-17T16:34:57.114Z,17.53
2023-05-17T16:37:26.128Z,17.59
2023-05-17T16:39:55.248Z,17.73
2023-05-17T16:42:24.250Z,17.84
2023-05-17T16:44:53.341Z,17.83
2023-05-17T16:47:27.541Z,18.02
2023-05-17T16:49:57.407Z,17.89
2023-05-17T16:52:26.604Z,18.07
2023-05-17T16:55:02.384Z,18.11
2023-05-17T16:57:32.963Z,18.01
2023-05-17T17:00:02.569Z,18.26
2023-05-17T17:02:32.927Z,18.41
2023-05-17T17:05:01.865Z,18.63
2023-05-17T17:07:30.775Z,18.50
2023-05-17T17:09:59.749Z,18.49
2023-05-17T17:12:28.871Z,18.46
2023-05-17T17:14:58.111Z,18.63
2023-05-17T17:17:27.918Z,18.66
2023-05-17T17:19:57.266Z,18.73
2023-05-17T17:22:26.209Z,18.85
2023-05-17T17:24:55.859Z,18.94
2023-05-17T17:27:24.897Z,19.07
2023-05-17T17:29:56.088Z,19.24
2023-05-17T17:32:25.580Z,19.26
2023-05-17T17:34:54.572Z,19.47
2023-05-17T17:37:23.795Z,19.40
2023-05-17T17:39:52.738Z,19.52
2023-05-17T17:42:21.793Z,19.37
2023-05-17T17:44:50.701Z,19.36
2023-05-17T17:47:19.895Z,19.60
2023-05-17T17:49:49.023Z,19.62
2023-05-17T17:52:17.926Z,19.60
2023-05-17T17:54:46.932Z,19.55
2023-05-17T17:57:16.326Z,19.70
2023-05-17T17:59:45.331Z,19.76
2023-05-17T18:02:14.283Z,19.95
2023-05-17T18:04:43.377Z,20.05
2023-05-17T18:07:14.886Z,20.18
2023-05-17T18:09:44.351Z,20.20
2023-05-17T18:12:13.372Z,20.30
2023-05-17T18:14:42.354Z,20.38
2023-05-17T18:17:11.549Z,20.55
2023-05-17T18:19:40.561Z,20.66
2023-05-17T18:22:09.476Z,20.73
2023-05-17T18:24:38.436Z,20.90
2023-05-17T18:27:07.544Z,21.00
2023-05-17T18:29:36.851Z,21.22
2023-05-17T18:32:06.342Z,21.46
2023-05-17T18:34:36.161Z,21.55
2023-05-17T18:37:05.793Z,21.77
2023-05-17T18:39:34.720Z,21.69
2023-05-17T18:42:04.839Z,21.89
2023-05-17T18:44:35.624Z,21.76
2023-05-17T18:47:04.796Z,22.16
2023-05-17T18:49:33.807Z,22.25
2023-05-17T18:52:03.145Z,22.38
2023-05-17T18:54:32.125Z,22.65
2023-05-17T18:57:01.329Z,22.59
2023-05-17T18:59:30.494Z,22.66
2023-05-17T19:01:59.817Z,22.61
2023-05-17T19:04:30.560Z,22.62
2023-05-17T19:07:01.200Z,22.67
2023-05-17T19:09:30.763Z,22.66
2023-05-17T19:11:59.906Z,22.88
2023-05-17T19:14:29.251Z,23.04
2023-05-17T19:16:58.401Z,23.20
2023-05-17T19:19:27.619Z,23.32
2023-05-17T19:21:56.640Z,22.99
2023-05-17T19:24:25.886Z,23.37
2023-05-17T19:26:54.825Z,23.39
2023-05-17T19:29:23.893Z,23.49
2023-05-17T19:31:53.063Z,23.66
2023-05-17T19:34:22.085Z,23.75
2023-05-17T19:36:51.390Z,23.72
2023-05-17T19:39:20.462Z,23.87
2023-05-17T19:41:49.442Z,23.70
2023-05-17T19:44:18.678Z,24.10
2023-05-17T19:46:47.935Z,24.15
2023-05-17T19:49:17.434Z,24.23
2023-05-17T19:51:47.510Z,24.36
2023-05-17T19:54:17.331Z,24.15
2023-05-17T19:56:46.851Z,24.09
2023-05-17T19:59:15.819Z,24.17
2023-05-17T20:01:44.870Z,24.57
2023-05-17T20:04:14.238Z,24.30
2023-05-17T20:06:43.244Z,24.63
2023-05-17T20:09:12.518Z,24.83
2023-05-17T20:11:41.712Z,24.67
2023-05-17T20:14:13.018Z,24.93
2023-05-17T20:16:42.132Z,24.84
2023-05-17T20:19:11.744Z,24.81
2023-05-17T20:21:41.869Z,24.87
2023-05-17T20:24:11.000Z,25.07
2023-05-17T20:26:40.384Z,24.92
2023-05-17T20:29:12.398Z,25.06
2023-05-17T20:31:41.820Z,25.22
2023-05-17T20:35:11.410Z,25.53
2023-05-17T20:37:31.661Z,25.63
2023-05-17T20:40:01.130Z,25.95
2023-05-17T20:42:34.733Z,25.92
2023-05-17T20:45:07.329Z,25.84
2023-05-17T20:47:37.527Z,26.02
2023-05-17T20:50:07.177Z,26.18
2023-05-17T20:52:39.423Z,26.12
2023-05-17T20:55:10.362Z,26.20
2023-05-17T20:57:39.641Z,26.47
2023-05-17T21:00:12.610Z,26.40
2023-05-17T21:02:52.958Z,26.43
2023-05-17T21:05:36.841Z,26.43
2023-05-17T21:08:08.355Z,26.55
2023-05-17T21:10:40.191Z,26.62
2023-05-17T21:13:10.505Z,26.65
2023-05-17T21:15:41.039Z,26.71
2023-05-17T21:18:12.079Z,26.82
2023-05-17T21:20:41.227Z,27.03
2023-05-17T21:23:10.462Z,27.01
2023-05-17T21:25:45.474Z,27.22
2023-05-17T21:28:30.231Z,27.26
2023-05-17T21:31:19.181Z,27.14
2023-05-17T21:33:49.135Z,27.30
2023-05-17T21:36:18.526Z,27.31
2023-05-17T21:38:48.522Z,27.27
2023-05-17T21:41:17.790Z,27.11
2023-05-17T21:43:47.223Z,27.49
2023-05-17T21:46:16.550Z,27.47
2023-05-17T21:48:48.018Z,27.52
2023-05-17T21:51:17.699Z,27.67
2023-05-17T21:53:47.024Z,27.78
2023-05-17T21:56:19.868Z,27.82
2023-05-17T21:58:49.463Z,27.63
2023-05-17T22:01:25.019Z,27.63
2023-05-17T22:03:55.965Z,27.84
2023-05-17T22:06:28.348Z,27.79
2023-05-17T22:08:57.808Z,27.63
2023-05-17T22:11:28.495Z,27.73
2023-05-17T22:13:58.990Z,27.75
2023-05-17T22:16:28.524Z,27.74
2023-05-17T22:19:01.220Z,27.55
2023-05-17T22:21:32.317Z,27.31
2023-05-17T22:24:01.679Z,27.65
2023-05-17T22:26:31.220Z,27.60
2023-05-17T22:29:01.702Z,27.48
2023-05-17T22:31:31.643Z,27.83
2023-05-17T22:34:01.016Z,28.23
2023-05-17T22:36:33.115Z,28.12
2023-05-17T22:39:03.348Z,28.47
2023-05-17T22:41:32.510Z,28.18
2023-05-17T22:44:01.937Z,27.82
2023-05-17T22:46:33.674Z,28.37
2023-05-17T22:49:06.457Z,27.47
2023-05-17T22:51:36.859Z,27.76
2023-05-17T22:54:06.649Z,27.86
2023-05-17T22:56:35.964Z,27.76
2023-05-17T22:59:05.641Z,27.51
2023-05-17T23:01:35.776Z,27.70
2023-05-17T23:04:14.246Z,27.91
2023-05-17T23:06:48.792Z,27.81
2023-05-17T23:09:18.344Z,27.71
2023-05-17T23:11:53.986Z,27.81
2023-05-17T23:14:26.209Z,28.30
2023-05-17T23:16:55.419Z,28.38
2023-05-17T23:19:27.583Z,28.03
2023-05-17T23:22:03.660Z,28.29
2023-05-17T23:24:39.563Z,28.59
2023-05-17T23:27:11.565Z,28.31
2023-05-17T23:29:46.600Z,28.75
2023-05-17T23:32:16.023Z,28.75
2023-05-17T23:34:52.413Z,28.35
2023-05-17T23:37:21.909Z,28.55
2023-05-17T23:39:51.824Z,28.66
2023-05-17T23:42:23.185Z,28.69
2023-05-17T23:44:52.255Z,28.47
2023-05-17T23:47:21.326Z,28.67
2023-05-17T23:49:50.770Z,28.60
2023-05-17T23:52:20.039Z,28.49
2023-05-17T23:54:49.370Z,28.07
2023-05-17T23:57:18.284Z,28.67
2023-05-17T23:59:47.193Z,28.59
